sensor_id;sensor_type;location;lat;lon;timestamp;P1;durP1;ratioP1;P2;durP2;ratioP2
24161;SDS011;12318;51.262;7.066;2022-11-24T00:01:35;28.67;;;5.15;;
24161;SDS011;12318;51.262;7.066;2022-11-24T00:04:01;35.50;;;6.47;;
24161;SDS011;12318;51.262;7.066;2022-11-24T00:06:29;36.42;;;5.20;;
24161;SDS011;12318;51.262;7.066;2022-11-24T00:08:56;27.33;;;4.57;;
24161;SDS011;12318;51.262;7.066;2022-11-24T00:11:24;38.92;;;5.57;;
24161;SDS011;12318;51.262;7.066;2022-11-24T00:13:54;35.88;;;5.68;;
24161;SDS011;12318;51.262;7.066;2022-11-24T00:16:22;29.73;;;4.90;;
24161;SDS011;12318;51.262;7.066;2022-11-24T00:18:51;36.88;;;6.40;;
24161;SDS011;12318;51.262;7.066;2022-11-24T00:21:19;36.15;;;5.82;;
24161;SDS011;12318;51.262;7.066;2022-11-24T00:23:45;32.13;;;5.90;;
24161;SDS011;12318;51.262;7.066;2022-11-24T00:26:13;35.03;;;6.25;;
24161;SDS011;12318;51.262;7.066;2022-11-24T00:28:41;30.33;;;5.20;;
24161;SDS011;12318;51.262;7.066;2022-11-24T00:31:15;30.15;;;5.45;;
24161;SDS011;12318;51.262;7.066;2022-11-24T00:33:52;22.30;;;4.47;;
24161;SDS011;12318;51.262;7.066;2022-11-24T00:36:20;35.28;;;5.07;;
24161;SDS011;12318;51.262;7.066;2022-11-24T00:38:51;30.55;;;5.20;;
24161;SDS011;12318;51.262;7.066;2022-11-24T00:41:22;31.10;;;5.22;;
24161;SDS011;12318;51.262;7.066;2022-11-24T00:43:49;33.00;;;5.97;;
24161;SDS011;12318;51.262;7.066;2022-11-24T00:46:15;36.63;;;5.65;;
24161;SDS011;12318;51.262;7.066;2022-11-24T00:48:41;34.90;;;5.40;;
24161;SDS011;12318;51.262;7.066;2022-11-24T00:51:08;30.67;;;4.88;;
24161;SDS011;12318;51.262;7.066;2022-11-24T00:53:35;38.55;;;5.65;;
24161;SDS011;12318;51.262;7.066;2022-11-24T00:56:01;32.92;;;5.55;;
24161;SDS011;12318;51.262;7.066;2022-11-24T00:58:30;42.83;;;6.32;;
24161;SDS011;12318;51.262;7.066;2022-11-24T01:01:03;35.65;;;5.60;;
24161;SDS011;12318;51.262;7.066;2022-11-24T01:03:31;38.13;;;5.57;;
24161;SDS011;12318;51.262;7.066;2022-11-24T01:08:37;31.50;;;5.35;;
24161;SDS011;12318;51.262;7.066;2022-11-24T01:11:12;30.92;;;4.65;;
24161;SDS011;12318;51.262;7.066;2022-11-24T01:13:40;41.03;;;6.05;;
24161;SDS011;12318;51.262;7.066;2022-11-24T01:16:17;26.67;;;4.35;;
24161;SDS011;12318;51.262;7.066;2022-11-24T01:18:43;31.17;;;5.55;;
24161;SDS011;12318;51.262;7.066;2022-11-24T01:21:10;32.70;;;5.20;;
24161;SDS011;12318;51.262;7.066;2022-11-24T01:23:36;33.97;;;5.18;;
24161;SDS011;12318;51.262;7.066;2022-11-24T01:26:05;31.85;;;5.68;;
24161;SDS011;12318;51.262;7.066;2022-11-24T01:28:32;26.05;;;4.72;;
24161;SDS011;12318;51.262;7.066;2022-11-24T01:31:01;27.65;;;5.45;;
24161;SDS011;12318;51.262;7.066;2022-11-24T01:33:28;27.48;;;4.75;;
24161;SDS011;12318;51.262;7.066;2022-11-24T01:35:55;28.55;;;5.05;;
24161;SDS011;12318;51.262;7.066;2022-11-24T01:38:22;36.72;;;6.60;;
24161;SDS011;12318;51.262;7.066;2022-11-24T01:40:58;34.42;;;7.50;;
24161;SDS011;12318;51.262;7.066;2022-11-24T01:43:32;33.05;;;7.05;;
24161;SDS011;12318;51.262;7.066;2022-11-24T01:46:00;30.90;;;7.15;;
24161;SDS011;12318;51.262;7.066;2022-11-24T01:48:40;31.70;;;5.32;;
24161;SDS011;12318;51.262;7.066;2022-11-24T01:51:14;29.02;;;4.68;;
24161;SDS011;12318;51.262;7.066;2022-11-24T01:53:44;34.55;;;4.95;;
24161;SDS011;12318;51.262;7.066;2022-11-24T01:56:16;32.90;;;4.60;;
24161;SDS011;12318;51.262;7.066;2022-11-24T01:58:42;29.38;;;3.83;;
24161;SDS011;12318;51.262;7.066;2022-11-24T02:01:11;27.25;;;4.68;;
24161;SDS011;12318;51.262;7.066;2022-11-24T02:03:37;27.98;;;4.10;;
24161;SDS011;12318;51.262;7.066;2022-11-24T02:06:13;25.85;;;4.88;;
24161;SDS011;12318;51.262;7.066;2022-11-24T02:08:50;23.70;;;4.43;;
24161;SDS011;12318;51.262;7.066;2022-11-24T02:11:49;26.02;;;3.75;;
24161;SDS011;12318;51.262;7.066;2022-11-24T02:14:16;24.17;;;4.53;;
24161;SDS011;12318;51.262;7.066;2022-11-24T02:16:44;22.67;;;4.00;;
24161;SDS011;12318;51.262;7.066;2022-11-24T02:19:17;26.95;;;4.57;;
24161;SDS011;12318;51.262;7.066;2022-11-24T02:27:41;23.58;;;4.32;;
24161;SDS011;12318;51.262;7.066;2022-11-24T02:30:10;29.17;;;4.35;;
24161;SDS011;12318;51.262;7.066;2022-11-24T02:32:37;23.77;;;4.38;;
24161;SDS011;12318;51.262;7.066;2022-11-24T02:35:05;22.45;;;3.88;;
24161;SDS011;12318;51.262;7.066;2022-11-24T02:37:33;31.40;;;4.20;;
24161;SDS011;12318;51.262;7.066;2022-11-24T02:39:59;25.98;;;4.40;;
24161;SDS011;12318;51.262;7.066;2022-11-24T02:42:25;28.08;;;4.40;;
24161;SDS011;12318;51.262;7.066;2022-11-24T02:44:53;25.77;;;3.95;;
24161;SDS011;12318;51.262;7.066;2022-11-24T02:47:22;20.55;;;3.88;;
24161;SDS011;12318;51.262;7.066;2022-11-24T02:49:48;26.58;;;3.88;;
24161;SDS011;12318;51.262;7.066;2022-11-24T02:52:14;30.52;;;4.18;;
24161;SDS011;12318;51.262;7.066;2022-11-24T02:54:40;23.60;;;4.18;;
24161;SDS011;12318;51.262;7.066;2022-11-24T02:57:06;28.48;;;4.60;;
24161;SDS011;12318;51.262;7.066;2022-11-24T02:59:32;30.83;;;4.18;;
24161;SDS011;12318;51.262;7.066;2022-11-24T03:01:58;28.60;;;4.57;;
24161;SDS011;12318;51.262;7.066;2022-11-24T03:04:24;28.83;;;4.50;;
24161;SDS011;12318;51.262;7.066;2022-11-24T03:06:49;28.77;;;4.97;;
24161;SDS011;12318;51.262;7.066;2022-11-24T03:09:15;29.80;;;4.57;;
24161;SDS011;12318;51.262;7.066;2022-11-24T03:11:41;31.20;;;4.40;;
24161;SDS011;12318;51.262;7.066;2022-11-24T03:14:07;23.70;;;4.70;;
24161;SDS011;12318;51.262;7.066;2022-11-24T03:16:33;25.80;;;4.22;;
24161;SDS011;12318;51.262;7.066;2022-11-24T03:18:59;33.88;;;4.88;;
24161;SDS011;12318;51.262;7.066;2022-11-24T03:21:25;23.98;;;3.90;;
24161;SDS011;12318;51.262;7.066;2022-11-24T03:23:51;25.55;;;4.38;;
24161;SDS011;12318;51.262;7.066;2022-11-24T03:26:18;18.73;;;3.85;;
24161;SDS011;12318;51.262;7.066;2022-11-24T03:28:45;21.77;;;4.07;;
24161;SDS011;12318;51.262;7.066;2022-11-24T03:31:11;22.63;;;3.90;;
24161;SDS011;12318;51.262;7.066;2022-11-24T03:33:38;27.15;;;4.70;;
24161;SDS011;12318;51.262;7.066;2022-11-24T03:36:04;29.55;;;5.03;;
24161;SDS011;12318;51.262;7.066;2022-11-24T03:38:31;27.17;;;4.22;;
24161;SDS011;12318;51.262;7.066;2022-11-24T03:40:57;28.25;;;4.60;;
24161;SDS011;12318;51.262;7.066;2022-11-24T03:43:23;30.00;;;4.80;;
24161;SDS011;12318;51.262;7.066;2022-11-24T03:45:49;34.72;;;5.22;;
24161;SDS011;12318;51.262;7.066;2022-11-24T03:48:15;34.95;;;5.65;;
24161;SDS011;12318;51.262;7.066;2022-11-24T03:50:43;27.10;;;4.50;;
24161;SDS011;12318;51.262;7.066;2022-11-24T03:53:16;34.35;;;5.35;;
24161;SDS011;12318;51.262;7.066;2022-11-24T03:55:42;34.88;;;5.15;;
24161;SDS011;12318;51.262;7.066;2022-11-24T03:58:08;27.98;;;4.75;;
24161;SDS011;12318;51.262;7.066;2022-11-24T04:00:33;30.10;;;4.15;;
24161;SDS011;12318;51.262;7.066;2022-11-24T04:02:59;29.98;;;4.38;;
24161;SDS011;12318;51.262;7.066;2022-11-24T04:05:25;28.30;;;5.00;;
24161;SDS011;12318;51.262;7.066;2022-11-24T04:07:53;25.73;;;4.50;;
24161;SDS011;12318;51.262;7.066;2022-11-24T04:10:21;24.02;;;3.92;;
24161;SDS011;12318;51.262;7.066;2022-11-24T04:12:50;23.55;;;4.35;;
24161;SDS011;12318;51.262;7.066;2022-11-24T04:15:16;35.72;;;4.78;;
24161;SDS011;12318;51.262;7.066;2022-11-24T04:17:44;27.60;;;4.80;;
24161;SDS011;12318;51.262;7.066;2022-11-24T04:20:11;27.30;;;3.90;;
24161;SDS011;12318;51.262;7.066;2022-11-24T04:22:37;22.35;;;3.90;;
24161;SDS011;12318;51.262;7.066;2022-11-24T04:25:03;39.75;;;5.10;;
24161;SDS011;12318;51.262;7.066;2022-11-24T04:27:33;23.38;;;3.75;;
24161;SDS011;12318;51.262;7.066;2022-11-24T04:30:00;27.63;;;4.40;;
24161;SDS011;12318;51.262;7.066;2022-11-24T04:34:54;28.42;;;4.82;;
24161;SDS011;12318;51.262;7.066;2022-11-24T04:37:20;27.92;;;4.88;;
24161;SDS011;12318;51.262;7.066;2022-11-24T04:39:46;27.92;;;4.30;;
24161;SDS011;12318;51.262;7.066;2022-11-24T04:42:12;26.17;;;4.97;;
24161;SDS011;12318;51.262;7.066;2022-11-24T04:44:37;32.97;;;4.40;;
24161;SDS011;12318;51.262;7.066;2022-11-24T04:47:03;34.85;;;4.95;;
24161;SDS011;12318;51.262;7.066;2022-11-24T04:49:29;28.60;;;4.65;;
24161;SDS011;12318;51.262;7.066;2022-11-24T04:52:00;30.90;;;5.40;;
24161;SDS011;12318;51.262;7.066;2022-11-24T04:54:26;29.65;;;5.55;;
24161;SDS011;12318;51.262;7.066;2022-11-24T04:56:52;32.53;;;5.28;;
24161;SDS011;12318;51.262;7.066;2022-11-24T04:59:18;29.92;;;5.63;;
24161;SDS011;12318;51.262;7.066;2022-11-24T05:01:45;27.15;;;5.30;;
24161;SDS011;12318;51.262;7.066;2022-11-24T05:04:11;33.65;;;4.65;;
24161;SDS011;12318;51.262;7.066;2022-11-24T05:06:39;32.60;;;5.18;;
24161;SDS011;12318;51.262;7.066;2022-11-24T05:09:05;26.17;;;4.40;;
24161;SDS011;12318;51.262;7.066;2022-11-24T05:11:31;29.17;;;4.82;;
24161;SDS011;12318;51.262;7.066;2022-11-24T05:13:57;34.60;;;4.95;;
24161;SDS011;12318;51.262;7.066;2022-11-24T05:16:23;28.73;;;4.63;;
24161;SDS011;12318;51.262;7.066;2022-11-24T05:18:49;34.78;;;4.82;;
24161;SDS011;12318;51.262;7.066;2022-11-24T05:21:15;32.60;;;5.20;;
24161;SDS011;12318;51.262;7.066;2022-11-24T05:23:40;26.75;;;5.00;;
24161;SDS011;12318;51.262;7.066;2022-11-24T05:26:06;32.85;;;5.70;;
24161;SDS011;12318;51.262;7.066;2022-11-24T05:28:32;29.90;;;5.28;;
24161;SDS011;12318;51.262;7.066;2022-11-24T05:31:00;36.22;;;6.43;;
24161;SDS011;12318;51.262;7.066;2022-11-24T05:33:27;30.90;;;5.32;;
24161;SDS011;12318;51.262;7.066;2022-11-24T05:35:54;35.13;;;5.28;;
24161;SDS011;12318;51.262;7.066;2022-11-24T05:38:24;31.38;;;5.40;;
24161;SDS011;12318;51.262;7.066;2022-11-24T05:40:51;27.38;;;5.35;;
24161;SDS011;12318;51.262;7.066;2022-11-24T05:43:16;32.05;;;5.20;;
24161;SDS011;12318;51.262;7.066;2022-11-24T05:45:42;39.83;;;6.00;;
24161;SDS011;12318;51.262;7.066;2022-11-24T05:48:13;38.67;;;5.45;;
24161;SDS011;12318;51.262;7.066;2022-11-24T05:50:39;30.40;;;4.55;;
24161;SDS011;12318;51.262;7.066;2022-11-24T05:53:07;31.45;;;5.45;;
24161;SDS011;12318;51.262;7.066;2022-11-24T05:55:34;30.20;;;5.13;;
24161;SDS011;12318;51.262;7.066;2022-11-24T05:58:02;45.47;;;5.53;;
24161;SDS011;12318;51.262;7.066;2022-11-24T06:00:30;34.13;;;6.03;;
24161;SDS011;12318;51.262;7.066;2022-11-24T06:02:57;34.47;;;6.10;;
24161;SDS011;12318;51.262;7.066;2022-11-24T06:05:24;32.15;;;5.30;;
24161;SDS011;12318;51.262;7.066;2022-11-24T06:07:51;38.83;;;5.53;;
24161;SDS011;12318;51.262;7.066;2022-11-24T06:10:18;37.83;;;5.65;;
24161;SDS011;12318;51.262;7.066;2022-11-24T06:12:46;41.72;;;6.53;;
24161;SDS011;12318;51.262;7.066;2022-11-24T06:15:12;37.78;;;6.03;;
24161;SDS011;12318;51.262;7.066;2022-11-24T06:17:38;32.22;;;5.60;;
24161;SDS011;12318;51.262;7.066;2022-11-24T06:20:05;37.20;;;5.82;;
24161;SDS011;12318;51.262;7.066;2022-11-24T06:22:32;37.35;;;5.50;;
24161;SDS011;12318;51.262;7.066;2022-11-24T06:24:57;35.75;;;5.18;;
24161;SDS011;12318;51.262;7.066;2022-11-24T06:27:23;32.05;;;5.35;;
24161;SDS011;12318;51.262;7.066;2022-11-24T06:29:50;31.42;;;5.28;;
24161;SDS011;12318;51.262;7.066;2022-11-24T06:32:16;39.67;;;6.13;;
24161;SDS011;12318;51.262;7.066;2022-11-24T06:34:42;27.40;;;5.03;;
24161;SDS011;12318;51.262;7.066;2022-11-24T06:37:08;27.10;;;4.93;;
24161;SDS011;12318;51.262;7.066;2022-11-24T06:39:34;37.70;;;5.35;;
24161;SDS011;12318;51.262;7.066;2022-11-24T06:42:01;36.42;;;6.25;;
24161;SDS011;12318;51.262;7.066;2022-11-24T06:44:27;44.00;;;5.70;;
24161;SDS011;12318;51.262;7.066;2022-11-24T06:46:53;35.42;;;5.57;;
24161;SDS011;12318;51.262;7.066;2022-11-24T06:49:19;33.60;;;6.35;;
24161;SDS011;12318;51.262;7.066;2022-11-24T06:51:45;29.95;;;5.13;;
24161;SDS011;12318;51.262;7.066;2022-11-24T06:54:14;22.88;;;4.43;;
24161;SDS011;12318;51.262;7.066;2022-11-24T06:56:40;36.85;;;5.32;;
24161;SDS011;12318;51.262;7.066;2022-11-24T06:59:06;26.42;;;4.50;;
24161;SDS011;12318;51.262;7.066;2022-11-24T07:01:39;34.80;;;4.85;;
24161;SDS011;12318;51.262;7.066;2022-11-24T07:04:05;24.33;;;3.85;;
24161;SDS011;12318;51.262;7.066;2022-11-24T07:06:31;19.40;;;3.83;;
24161;SDS011;12318;51.262;7.066;2022-11-24T07:09:02;24.38;;;4.25;;
24161;SDS011;12318;51.262;7.066;2022-11-24T07:11:31;27.75;;;3.75;;
24161;SDS011;12318;51.262;7.066;2022-11-24T07:14:09;25.17;;;3.95;;
24161;SDS011;12318;51.262;7.066;2022-11-24T07:16:39;26.40;;;3.75;;
24161;SDS011;12318;51.262;7.066;2022-11-24T07:19:13;19.02;;;3.95;;
24161;SDS011;12318;51.262;7.066;2022-11-24T07:22:01;27.88;;;4.30;;
24161;SDS011;12318;51.262;7.066;2022-11-24T07:24:48;22.13;;;3.33;;
24161;SDS011;12318;51.262;7.066;2022-11-24T07:31:00;17.13;;;2.80;;
24161;SDS011;12318;51.262;7.066;2022-11-24T07:34:10;19.13;;;2.45;;
24161;SDS011;12318;51.262;7.066;2022-11-24T07:36:42;13.85;;;2.70;;
24161;SDS011;12318;51.262;7.066;2022-11-24T07:39:09;17.35;;;2.67;;
24161;SDS011;12318;51.262;7.066;2022-11-24T07:41:42;14.60;;;2.35;;
24161;SDS011;12318;51.262;7.066;2022-11-24T07:44:09;10.10;;;1.67;;
24161;SDS011;12318;51.262;7.066;2022-11-24T07:46:40;12.30;;;1.88;;
24161;SDS011;12318;51.262;7.066;2022-11-24T07:49:15;9.98;;;2.08;;
24161;SDS011;12318;51.262;7.066;2022-11-24T07:51:46;4.65;;;1.10;;
24161;SDS011;12318;51.262;7.066;2022-11-24T07:54:18;11.10;;;1.58;;
24161;SDS011;12318;51.262;7.066;2022-11-24T07:56:47;11.18;;;1.80;;
24161;SDS011;12318;51.262;7.066;2022-11-24T07:59:35;6.50;;;1.20;;
24161;SDS011;12318;51.262;7.066;2022-11-24T08:02:22;5.38;;;1.52;;
24161;SDS011;12318;51.262;7.066;2022-11-24T08:04:52;10.75;;;1.55;;
24161;SDS011;12318;51.262;7.066;2022-11-24T08:07:40;8.95;;;1.45;;
24161;SDS011;12318;51.262;7.066;2022-11-24T08:10:06;7.55;;;1.50;;
24161;SDS011;12318;51.262;7.066;2022-11-24T08:13:03;4.35;;;1.23;;
24161;SDS011;12318;51.262;7.066;2022-11-24T08:15:34;7.85;;;1.30;;
24161;SDS011;12318;51.262;7.066;2022-11-24T08:20:57;6.78;;;1.30;;
24161;SDS011;12318;51.262;7.066;2022-11-24T08:26:36;7.35;;;1.38;;
24161;SDS011;12318;51.262;7.066;2022-11-24T08:29:18;12.45;;;2.10;;
24161;SDS011;12318;51.262;7.066;2022-11-24T08:32:06;10.80;;;1.60;;
24161;SDS011;12318;51.262;7.066;2022-11-24T08:34:32;12.10;;;1.95;;
24161;SDS011;12318;51.262;7.066;2022-11-24T08:36:58;13.43;;;2.00;;
24161;SDS011;12318;51.262;7.066;2022-11-24T08:39:53;9.77;;;1.85;;
24161;SDS011;12318;51.262;7.066;2022-11-24T08:42:33;9.65;;;1.73;;
24161;SDS011;12318;51.262;7.066;2022-11-24T08:45:04;10.82;;;2.03;;
24161;SDS011;12318;51.262;7.066;2022-11-24T08:47:32;10.35;;;1.88;;
24161;SDS011;12318;51.262;7.066;2022-11-24T08:49:58;10.38;;;2.22;;
24161;SDS011;12318;51.262;7.066;2022-11-24T08:52:29;10.55;;;2.30;;
24161;SDS011;12318;51.262;7.066;2022-11-24T08:57:31;11.02;;;2.40;;
24161;SDS011;12318;51.262;7.066;2022-11-24T09:00:14;18.35;;;2.20;;
24161;SDS011;12318;51.262;7.066;2022-11-24T09:02:51;12.48;;;2.50;;
24161;SDS011;12318;51.262;7.066;2022-11-24T09:05:23;12.32;;;2.00;;
24161;SDS011;12318;51.262;7.066;2022-11-24T09:07:58;12.30;;;2.00;;
24161;SDS011;12318;51.262;7.066;2022-11-24T09:13:16;15.73;;;2.33;;
24161;SDS011;12318;51.262;7.066;2022-11-24T09:16:01;11.63;;;2.10;;
24161;SDS011;12318;51.262;7.066;2022-11-24T09:18:51;14.20;;;2.58;;
24161;SDS011;12318;51.262;7.066;2022-11-24T09:21:20;16.50;;;2.67;;
24161;SDS011;12318;51.262;7.066;2022-11-24T09:24:08;15.60;;;2.20;;
24161;SDS011;12318;51.262;7.066;2022-11-24T09:26:41;13.85;;;2.47;;
24161;SDS011;12318;51.262;7.066;2022-11-24T09:29:27;13.20;;;2.10;;
24161;SDS011;12318;51.262;7.066;2022-11-24T09:32:06;18.75;;;2.65;;
24161;SDS011;12318;51.262;7.066;2022-11-24T09:34:42;11.23;;;2.33;;
24161;SDS011;12318;51.262;7.066;2022-11-24T09:40:25;14.27;;;2.78;;
24161;SDS011;12318;51.262;7.066;2022-11-24T09:46:06;19.38;;;2.80;;
24161;SDS011;12318;51.262;7.066;2022-11-24T09:48:45;14.93;;;2.60;;
24161;SDS011;12318;51.262;7.066;2022-11-24T09:51:37;16.70;;;2.60;;
24161;SDS011;12318;51.262;7.066;2022-11-24T09:54:05;14.60;;;2.67;;
24161;SDS011;12318;51.262;7.066;2022-11-24T09:56:37;16.15;;;2.35;;
24161;SDS011;12318;51.262;7.066;2022-11-24T09:59:13;19.77;;;3.03;;
24161;SDS011;12318;51.262;7.066;2022-11-24T10:02:09;19.30;;;3.05;;
24161;SDS011;12318;51.262;7.066;2022-11-24T10:04:49;23.17;;;3.25;;
24161;SDS011;12318;51.262;7.066;2022-11-24T10:10:51;14.85;;;2.88;;
24161;SDS011;12318;51.262;7.066;2022-11-24T10:24:45;17.05;;;2.67;;
24161;SDS011;12318;51.262;7.066;2022-11-24T10:28:21;17.98;;;2.55;;
24161;SDS011;12318;51.262;7.066;2022-11-24T10:30:33;14.73;;;2.70;;
24161;SDS011;12318;51.262;7.066;2022-11-24T10:33:10;18.30;;;2.65;;
24161;SDS011;12318;51.262;7.066;2022-11-24T10:39:14;14.75;;;2.53;;
24161;SDS011;12318;51.262;7.066;2022-11-24T10:42:33;18.98;;;2.80;;
24161;SDS011;12318;51.262;7.066;2022-11-24T10:45:28;19.98;;;3.08;;
24161;SDS011;12318;51.262;7.066;2022-11-24T10:48:35;18.08;;;3.42;;
24161;SDS011;12318;51.262;7.066;2022-11-24T10:54:50;13.55;;;2.65;;
24161;SDS011;12318;51.262;7.066;2022-11-24T10:57:54;17.08;;;2.53;;
24161;SDS011;12318;51.262;7.066;2022-11-24T11:00:43;19.40;;;3.10;;
24161;SDS011;12318;51.262;7.066;2022-11-24T11:04:15;14.25;;;2.40;;
24161;SDS011;12318;51.262;7.066;2022-11-24T11:06:42;14.27;;;2.63;;
24161;SDS011;12318;51.262;7.066;2022-11-24T11:11:52;15.80;;;2.38;;
24161;SDS011;12318;51.262;7.066;2022-11-24T11:14:28;19.15;;;2.75;;
24161;SDS011;12318;51.262;7.066;2022-11-24T11:23:50;14.88;;;2.83;;
24161;SDS011;12318;51.262;7.066;2022-11-24T11:34:58;17.93;;;3.13;;
24161;SDS011;12318;51.262;7.066;2022-11-24T11:37:25;18.25;;;6.40;;
24161;SDS011;12318;51.262;7.066;2022-11-24T11:39:55;15.13;;;3.13;;
24161;SDS011;12318;51.262;7.066;2022-11-24T11:44:49;19.95;;;3.53;;
24161;SDS011;12318;51.262;7.066;2022-11-24T11:48:23;17.10;;;3.15;;
24161;SDS011;12318;51.262;7.066;2022-11-24T12:13:02;28.45;;;4.20;;
24161;SDS011;12318;51.262;7.066;2022-11-24T12:15:51;25.00;;;3.75;;
24161;SDS011;12318;51.262;7.066;2022-11-24T12:34:23;18.58;;;3.53;;
24161;SDS011;12318;51.262;7.066;2022-11-24T12:39:46;16.15;;;3.40;;
24161;SDS011;12318;51.262;7.066;2022-11-24T12:43:10;20.42;;;3.25;;
24161;SDS011;12318;51.262;7.066;2022-11-24T12:50:46;18.60;;;3.17;;
24161;SDS011;12318;51.262;7.066;2022-11-24T12:53:16;21.13;;;4.00;;
24161;SDS011;12318;51.262;7.066;2022-11-24T12:55:57;23.67;;;3.45;;
24161;SDS011;12318;51.262;7.066;2022-11-24T13:04:57;24.85;;;3.72;;
24161;SDS011;12318;51.262;7.066;2022-11-24T13:08:12;19.90;;;3.13;;
24161;SDS011;12318;51.262;7.066;2022-11-24T13:10:44;22.73;;;3.35;;
24161;SDS011;12318;51.262;7.066;2022-11-24T13:13:52;18.30;;;3.05;;
24161;SDS011;12318;51.262;7.066;2022-11-24T13:16:23;17.40;;;3.42;;
24161;SDS011;12318;51.262;7.066;2022-11-24T13:19:07;24.40;;;4.35;;
24161;SDS011;12318;51.262;7.066;2022-11-24T13:24:30;20.02;;;3.33;;
24161;SDS011;12318;51.262;7.066;2022-11-24T13:39:17;39.30;;;4.07;;
24161;SDS011;12318;51.262;7.066;2022-11-24T13:42:18;22.55;;;4.30;;
24161;SDS011;12318;51.262;7.066;2022-11-24T13:47:42;26.52;;;3.92;;
24161;SDS011;12318;51.262;7.066;2022-11-24T13:53:49;30.67;;;4.38;;
24161;SDS011;12318;51.262;7.066;2022-11-24T13:56:21;25.63;;;4.28;;
24161;SDS011;12318;51.262;7.066;2022-11-24T13:59:13;29.75;;;4.22;;
24161;SDS011;12318;51.262;7.066;2022-11-24T14:02:21;39.55;;;5.35;;
24161;SDS011;12318;51.262;7.066;2022-11-24T14:04:55;32.63;;;4.18;;
24161;SDS011;12318;51.262;7.066;2022-11-24T14:07:23;29.25;;;4.22;;
24161;SDS011;12318;51.262;7.066;2022-11-24T14:09:49;20.27;;;3.80;;
24161;SDS011;12318;51.262;7.066;2022-11-24T14:12:20;21.83;;;3.78;;
24161;SDS011;12318;51.262;7.066;2022-11-24T14:14:51;23.55;;;3.85;;
24161;SDS011;12318;51.262;7.066;2022-11-24T14:17:25;22.65;;;3.58;;
24161;SDS011;12318;51.262;7.066;2022-11-24T14:19:53;18.52;;;4.03;;
24161;SDS011;12318;51.262;7.066;2022-11-24T14:22:24;13.98;;;3.40;;
24161;SDS011;12318;51.262;7.066;2022-11-24T14:25:21;21.55;;;4.65;;
24161;SDS011;12318;51.262;7.066;2022-11-24T14:27:49;17.17;;;3.13;;
24161;SDS011;12318;51.262;7.066;2022-11-24T14:32:58;27.40;;;4.15;;
24161;SDS011;12318;51.262;7.066;2022-11-24T14:35:26;32.15;;;4.70;;
24161;SDS011;12318;51.262;7.066;2022-11-24T14:37:57;20.48;;;4.25;;
24161;SDS011;12318;51.262;7.066;2022-11-24T14:40:41;30.17;;;4.87;;
24161;SDS011;12318;51.262;7.066;2022-11-24T14:43:28;30.92;;;4.43;;
24161;SDS011;12318;51.262;7.066;2022-11-24T14:45:57;37.60;;;5.82;;
24161;SDS011;12318;51.262;7.066;2022-11-24T14:48:29;51.33;;;5.30;;
24161;SDS011;12318;51.262;7.066;2022-11-24T14:51:13;47.10;;;5.38;;
24161;SDS011;12318;51.262;7.066;2022-11-24T14:53:45;38.55;;;5.10;;
24161;SDS011;12318;51.262;7.066;2022-11-24T14:56:26;20.13;;;4.00;;
24161;SDS011;12318;51.262;7.066;2022-11-24T14:58:54;22.65;;;3.90;;
24161;SDS011;12318;51.262;7.066;2022-11-24T15:01:31;23.45;;;4.10;;
24161;SDS011;12318;51.262;7.066;2022-11-24T15:06:58;24.48;;;3.55;;
24161;SDS011;12318;51.262;7.066;2022-11-24T15:09:42;26.30;;;4.00;;
24161;SDS011;12318;51.262;7.066;2022-11-24T15:20:31;27.75;;;4.88;;
24161;SDS011;12318;51.262;7.066;2022-11-24T15:28:25;26.85;;;4.40;;
24161;SDS011;12318;51.262;7.066;2022-11-24T15:30:55;22.95;;;3.72;;
24161;SDS011;12318;51.262;7.066;2022-11-24T15:33:31;23.67;;;4.57;;
24161;SDS011;12318;51.262;7.066;2022-11-24T15:36:00;22.90;;;3.78;;
24161;SDS011;12318;51.262;7.066;2022-11-24T15:38:30;27.30;;;4.70;;
24161;SDS011;12318;51.262;7.066;2022-11-24T15:40:58;24.23;;;3.92;;
24161;SDS011;12318;51.262;7.066;2022-11-24T15:43:38;25.92;;;5.32;;
24161;SDS011;12318;51.262;7.066;2022-11-24T15:46:05;20.65;;;3.88;;
24161;SDS011;12318;51.262;7.066;2022-11-24T15:48:31;24.33;;;4.18;;
24161;SDS011;12318;51.262;7.066;2022-11-24T15:50:58;19.70;;;4.13;;
24161;SDS011;12318;51.262;7.066;2022-11-24T15:56:45;24.27;;;4.38;;
24161;SDS011;12318;51.262;7.066;2022-11-24T15:59:06;19.33;;;4.50;;
24161;SDS011;12318;51.262;7.066;2022-11-24T16:01:40;25.48;;;4.78;;
24161;SDS011;12318;51.262;7.066;2022-11-24T16:04:07;24.38;;;4.18;;
24161;SDS011;12318;51.262;7.066;2022-11-24T16:06:33;23.15;;;4.80;;
24161;SDS011;12318;51.262;7.066;2022-11-24T16:08:59;20.80;;;4.45;;
24161;SDS011;12318;51.262;7.066;2022-11-24T16:11:25;21.27;;;4.40;;
24161;SDS011;12318;51.262;7.066;2022-11-24T16:13:51;22.30;;;4.55;;
24161;SDS011;12318;51.262;7.066;2022-11-24T16:16:17;25.63;;;4.68;;
24161;SDS011;12318;51.262;7.066;2022-11-24T16:18:43;25.60;;;4.38;;
24161;SDS011;12318;51.262;7.066;2022-11-24T16:21:09;26.05;;;4.85;;
24161;SDS011;12318;51.262;7.066;2022-11-24T16:23:35;22.58;;;4.25;;
24161;SDS011;12318;51.262;7.066;2022-11-24T16:26:02;19.40;;;4.45;;
24161;SDS011;12318;51.262;7.066;2022-11-24T16:28:30;28.70;;;4.97;;
24161;SDS011;12318;51.262;7.066;2022-11-24T16:30:56;25.65;;;4.88;;
24161;SDS011;12318;51.262;7.066;2022-11-24T16:33:22;26.42;;;5.40;;
24161;SDS011;12318;51.262;7.066;2022-11-24T16:39:07;32.35;;;5.55;;
24161;SDS011;12318;51.262;7.066;2022-11-24T16:41:33;27.02;;;4.55;;
24161;SDS011;12318;51.262;7.066;2022-11-24T16:43:59;24.60;;;4.68;;
24161;SDS011;12318;51.262;7.066;2022-11-24T16:46:25;14.13;;;4.10;;
24161;SDS011;12318;51.262;7.066;2022-11-24T16:49:01;21.23;;;4.53;;
24161;SDS011;12318;51.262;7.066;2022-11-24T16:51:29;20.75;;;4.45;;
24161;SDS011;12318;51.262;7.066;2022-11-24T16:53:55;23.38;;;3.88;;
24161;SDS011;12318;51.262;7.066;2022-11-24T16:56:22;16.67;;;4.70;;
24161;SDS011;12318;51.262;7.066;2022-11-24T16:58:49;23.92;;;4.30;;
24161;SDS011;12318;51.262;7.066;2022-11-24T17:01:14;24.60;;;4.10;;
24161;SDS011;12318;51.262;7.066;2022-11-24T17:03:40;24.42;;;4.40;;
24161;SDS011;12318;51.262;7.066;2022-11-24T17:06:07;21.77;;;4.35;;
24161;SDS011;12318;51.262;7.066;2022-11-24T17:08:36;17.40;;;3.53;;
24161;SDS011;12318;51.262;7.066;2022-11-24T17:11:25;23.15;;;4.10;;
24161;SDS011;12318;51.262;7.066;2022-11-24T17:13:50;24.35;;;4.45;;
24161;SDS011;12318;51.262;7.066;2022-11-24T17:16:17;19.73;;;3.78;;
24161;SDS011;12318;51.262;7.066;2022-11-24T17:18:45;21.60;;;3.83;;
24161;SDS011;12318;51.262;7.066;2022-11-24T17:21:15;24.48;;;4.15;;
24161;SDS011;12318;51.262;7.066;2022-11-24T17:23:43;15.00;;;3.15;;
24161;SDS011;12318;51.262;7.066;2022-11-24T17:26:10;17.73;;;4.18;;
24161;SDS011;12318;51.262;7.066;2022-11-24T17:28:40;17.83;;;3.75;;
24161;SDS011;12318;51.262;7.066;2022-11-24T17:31:19;24.15;;;4.32;;
24161;SDS011;12318;51.262;7.066;2022-11-24T17:33:49;18.60;;;3.80;;
24161;SDS011;12318;51.262;7.066;2022-11-24T17:36:17;16.30;;;3.60;;
24161;SDS011;12318;51.262;7.066;2022-11-24T17:38:43;14.70;;;3.67;;
24161;SDS011;12318;51.262;7.066;2022-11-24T17:41:09;21.70;;;3.38;;
24161;SDS011;12318;51.262;7.066;2022-11-24T17:43:35;19.65;;;3.83;;
24161;SDS011;12318;51.262;7.066;2022-11-24T17:46:02;16.98;;;3.58;;
24161;SDS011;12318;51.262;7.066;2022-11-24T17:48:29;23.20;;;4.65;;
24161;SDS011;12318;51.262;7.066;2022-11-24T17:51:02;23.20;;;4.20;;
24161;SDS011;12318;51.262;7.066;2022-11-24T17:53:30;16.92;;;4.13;;
24161;SDS011;12318;51.262;7.066;2022-11-24T17:55:59;20.02;;;4.95;;
24161;SDS011;12318;51.262;7.066;2022-11-24T17:58:29;25.58;;;4.00;;